sensor_id;sensor_type;location;lat;lon;timestamp;P1;durP1;ratioP1;P2;durP2;ratioP2
18657;SDS011;9458;50.942;5.074;2022-12-13T00:01:46;25.20;;;15.97;;
18657;SDS011;9458;50.942;5.074;2022-12-13T00:04:17;28.43;;;17.97;;
18657;SDS011;9458;50.942;5.074;2022-12-13T00:06:46;25.77;;;15.03;;
18657;SDS011;9458;50.942;5.074;2022-12-13T00:09:15;28.27;;;15.00;;
18657;SDS011;9458;50.942;5.074;2022-12-13T00:11:45;25.60;;;15.07;;
18657;SDS011;9458;50.942;5.074;2022-12-13T00:14:17;26.70;;;16.43;;
18657;SDS011;9458;50.942;5.074;2022-12-13T00:16:45;27.60;;;13.50;;
18657;SDS011;9458;50.942;5.074;2022-12-13T00:19:15;27.17;;;17.77;;
18657;SDS011;9458;50.942;5.074;2022-12-13T00:21:44;28.90;;;16.30;;
18657;SDS011;9458;50.942;5.074;2022-12-13T00:24:14;28.13;;;16.17;;
18657;SDS011;9458;50.942;5.074;2022-12-13T00:26:44;23.93;;;13.50;;
18657;SDS011;9458;50.942;5.074;2022-12-13T00:29:13;26.57;;;12.53;;
18657;SDS011;9458;50.942;5.074;2022-12-13T00:31:43;24.33;;;12.83;;
18657;SDS011;9458;50.942;5.074;2022-12-13T00:34:12;24.10;;;12.63;;
18657;SDS011;9458;50.942;5.074;2022-12-13T00:36:42;28.50;;;13.43;;
18657;SDS011;9458;50.942;5.074;2022-12-13T00:39:10;22.00;;;12.40;;
18657;SDS011;9458;50.942;5.074;2022-12-13T00:41:42;31.33;;;13.43;;
18657;SDS011;9458;50.942;5.074;2022-12-13T00:44:11;29.57;;;14.10;;
18657;SDS011;9458;50.942;5.074;2022-12-13T00:46:43;31.33;;;13.10;;
18657;SDS011;9458;50.942;5.074;2022-12-13T00:49:11;22.57;;;13.07;;
18657;SDS011;9458;50.942;5.074;2022-12-13T00:51:40;26.83;;;12.57;;
18657;SDS011;9458;50.942;5.074;2022-12-13T00:54:10;26.57;;;14.40;;
18657;SDS011;9458;50.942;5.074;2022-12-13T00:56:38;27.10;;;16.63;;
18657;SDS011;9458;50.942;5.074;2022-12-13T00:59:08;24.87;;;14.97;;
18657;SDS011;9458;50.942;5.074;2022-12-13T01:01:39;31.80;;;15.53;;
18657;SDS011;9458;50.942;5.074;2022-12-13T01:04:18;26.77;;;16.07;;
18657;SDS011;9458;50.942;5.074;2022-12-13T01:06:47;26.90;;;16.00;;
18657;SDS011;9458;50.942;5.074;2022-12-13T01:09:16;27.40;;;16.73;;
18657;SDS011;9458;50.942;5.074;2022-12-13T01:11:46;27.27;;;12.50;;
18657;SDS011;9458;50.942;5.074;2022-12-13T01:14:14;23.73;;;12.73;;
18657;SDS011;9458;50.942;5.074;2022-12-13T01:16:43;25.20;;;13.97;;
18657;SDS011;9458;50.942;5.074;2022-12-13T01:19:12;24.30;;;13.90;;
18657;SDS011;9458;50.942;5.074;2022-12-13T01:21:42;22.33;;;12.30;;
18657;SDS011;9458;50.942;5.074;2022-12-13T01:24:11;24.93;;;13.07;;
18657;SDS011;9458;50.942;5.074;2022-12-13T01:26:39;25.70;;;14.80;;
18657;SDS011;9458;50.942;5.074;2022-12-13T01:29:07;27.50;;;14.13;;
18657;SDS011;9458;50.942;5.074;2022-12-13T01:31:37;22.50;;;12.43;;
18657;SDS011;9458;50.942;5.074;2022-12-13T01:34:06;25.33;;;12.83;;
18657;SDS011;9458;50.942;5.074;2022-12-13T01:36:41;26.60;;;12.47;;
18657;SDS011;9458;50.942;5.074;2022-12-13T01:39:15;25.60;;;12.80;;
18657;SDS011;9458;50.942;5.074;2022-12-13T01:41:45;26.20;;;13.20;;
18657;SDS011;9458;50.942;5.074;2022-12-13T01:47:19;26.20;;;13.33;;
18657;SDS011;9458;50.942;5.074;2022-12-13T01:49:52;25.70;;;12.53;;
18657;SDS011;9458;50.942;5.074;2022-12-13T01:52:25;26.73;;;13.27;;
18657;SDS011;9458;50.942;5.074;2022-12-13T01:54:55;24.70;;;12.53;;
18657;SDS011;9458;50.942;5.074;2022-12-13T01:57:26;23.70;;;11.97;;
18657;SDS011;9458;50.942;5.074;2022-12-13T01:59:55;24.23;;;11.90;;
18657;SDS011;9458;50.942;5.074;2022-12-13T02:02:22;25.03;;;12.50;;
18657;SDS011;9458;50.942;5.074;2022-12-13T02:04:53;26.20;;;11.60;;
18657;SDS011;9458;50.942;5.074;2022-12-13T02:07:27;22.97;;;11.83;;
18657;SDS011;9458;50.942;5.074;2022-12-13T02:09:58;23.70;;;12.47;;
18657;SDS011;9458;50.942;5.074;2022-12-13T02:12:30;23.73;;;12.23;;
18657;SDS011;9458;50.942;5.074;2022-12-13T02:15:00;20.27;;;11.40;;
18657;SDS011;9458;50.942;5.074;2022-12-13T02:17:32;23.93;;;13.23;;
18657;SDS011;9458;50.942;5.074;2022-12-13T02:23:20;27.67;;;14.97;;
18657;SDS011;9458;50.942;5.074;2022-12-13T02:29:24;26.27;;;14.00;;
18657;SDS011;9458;50.942;5.074;2022-12-13T02:32:14;27.23;;;15.80;;
18657;SDS011;9458;50.942;5.074;2022-12-13T02:34:50;27.87;;;16.20;;
18657;SDS011;9458;50.942;5.074;2022-12-13T02:37:24;29.33;;;15.57;;
18657;SDS011;9458;50.942;5.074;2022-12-13T02:39:57;25.43;;;14.90;;
18657;SDS011;9458;50.942;5.074;2022-12-13T02:42:32;24.87;;;15.13;;
18657;SDS011;9458;50.942;5.074;2022-12-13T02:45:04;24.70;;;15.93;;
18657;SDS011;9458;50.942;5.074;2022-12-13T02:47:38;23.97;;;13.83;;
18657;SDS011;9458;50.942;5.074;2022-12-13T02:50:09;23.70;;;12.03;;
18657;SDS011;9458;50.942;5.074;2022-12-13T02:52:41;24.07;;;12.90;;
18657;SDS011;9458;50.942;5.074;2022-12-13T02:55:12;24.93;;;14.90;;
18657;SDS011;9458;50.942;5.074;2022-12-13T02:57:42;24.80;;;13.77;;
18657;SDS011;9458;50.942;5.074;2022-12-13T03:00:14;28.10;;;14.90;;
18657;SDS011;9458;50.942;5.074;2022-12-13T03:02:51;26.47;;;15.50;;
18657;SDS011;9458;50.942;5.074;2022-12-13T03:05:31;27.77;;;16.07;;
18657;SDS011;9458;50.942;5.074;2022-12-13T03:08:35;23.23;;;15.60;;
18657;SDS011;9458;50.942;5.074;2022-12-13T03:11:13;25.63;;;16.50;;
18657;SDS011;9458;50.942;5.074;2022-12-13T03:13:47;25.83;;;16.90;;
18657;SDS011;9458;50.942;5.074;2022-12-13T03:16:23;26.43;;;15.60;;
18657;SDS011;9458;50.942;5.074;2022-12-13T03:18:56;23.67;;;15.57;;
18657;SDS011;9458;50.942;5.074;2022-12-13T03:21:26;21.73;;;14.70;;
18657;SDS011;9458;50.942;5.074;2022-12-13T03:23:55;25.67;;;15.60;;
18657;SDS011;9458;50.942;5.074;2022-12-13T03:26:24;32.17;;;15.83;;
18657;SDS011;9458;50.942;5.074;2022-12-13T03:28:55;24.23;;;14.93;;
18657;SDS011;9458;50.942;5.074;2022-12-13T03:31:23;25.93;;;15.07;;
18657;SDS011;9458;50.942;5.074;2022-12-13T03:33:51;27.43;;;15.07;;
18657;SDS011;9458;50.942;5.074;2022-12-13T03:36:21;22.57;;;11.63;;
18657;SDS011;9458;50.942;5.074;2022-12-13T03:38:50;21.20;;;12.70;;
18657;SDS011;9458;50.942;5.074;2022-12-13T03:41:21;24.27;;;15.57;;
18657;SDS011;9458;50.942;5.074;2022-12-13T03:43:55;24.63;;;15.43;;
18657;SDS011;9458;50.942;5.074;2022-12-13T03:46:23;25.17;;;15.30;;
18657;SDS011;9458;50.942;5.074;2022-12-13T03:48:52;21.97;;;14.43;;
18657;SDS011;9458;50.942;5.074;2022-12-13T03:51:23;23.63;;;14.83;;
18657;SDS011;9458;50.942;5.074;2022-12-13T03:53:51;24.77;;;14.53;;
18657;SDS011;9458;50.942;5.074;2022-12-13T03:56:18;26.17;;;12.67;;
18657;SDS011;9458;50.942;5.074;2022-12-13T03:58:48;24.73;;;14.07;;
18657;SDS011;9458;50.942;5.074;2022-12-13T04:01:16;22.80;;;14.33;;
18657;SDS011;9458;50.942;5.074;2022-12-13T04:03:44;23.07;;;13.60;;
18657;SDS011;9458;50.942;5.074;2022-12-13T04:06:12;24.33;;;13.00;;
18657;SDS011;9458;50.942;5.074;2022-12-13T04:08:41;23.30;;;13.13;;
18657;SDS011;9458;50.942;5.074;2022-12-13T04:11:09;22.13;;;12.23;;
18657;SDS011;9458;50.942;5.074;2022-12-13T04:13:55;21.90;;;13.27;;
18657;SDS011;9458;50.942;5.074;2022-12-13T04:16:23;22.23;;;13.67;;
18657;SDS011;9458;50.942;5.074;2022-12-13T04:18:52;22.63;;;13.03;;
18657;SDS011;9458;50.942;5.074;2022-12-13T04:21:20;22.87;;;14.40;;
18657;SDS011;9458;50.942;5.074;2022-12-13T04:23:50;22.83;;;15.30;;
18657;SDS011;9458;50.942;5.074;2022-12-13T04:26:17;25.23;;;14.23;;
18657;SDS011;9458;50.942;5.074;2022-12-13T04:28:46;25.67;;;14.53;;
18657;SDS011;9458;50.942;5.074;2022-12-13T04:31:15;22.67;;;14.77;;
18657;SDS011;9458;50.942;5.074;2022-12-13T04:33:43;25.43;;;14.90;;
18657;SDS011;9458;50.942;5.074;2022-12-13T04:36:11;27.17;;;14.27;;
18657;SDS011;9458;50.942;5.074;2022-12-13T04:38:51;19.53;;;11.33;;
18657;SDS011;9458;50.942;5.074;2022-12-13T04:41:20;21.27;;;12.90;;
18657;SDS011;9458;50.942;5.074;2022-12-13T04:43:51;25.60;;;14.17;;
18657;SDS011;9458;50.942;5.074;2022-12-13T04:46:21;20.57;;;13.83;;
18657;SDS011;9458;50.942;5.074;2022-12-13T04:48:49;23.33;;;14.00;;
18657;SDS011;9458;50.942;5.074;2022-12-13T04:51:17;27.33;;;15.00;;
18657;SDS011;9458;50.942;5.074;2022-12-13T04:53:44;22.30;;;13.27;;
18657;SDS011;9458;50.942;5.074;2022-12-13T04:56:14;22.83;;;13.43;;
18657;SDS011;9458;50.942;5.074;2022-12-13T04:58:41;22.20;;;13.20;;
18657;SDS011;9458;50.942;5.074;2022-12-13T05:01:09;20.23;;;11.00;;
18657;SDS011;9458;50.942;5.074;2022-12-13T05:03:38;21.13;;;12.70;;
18657;SDS011;9458;50.942;5.074;2022-12-13T05:06:06;23.50;;;13.17;;
18657;SDS011;9458;50.942;5.074;2022-12-13T05:08:38;23.73;;;12.77;;
18657;SDS011;9458;50.942;5.074;2022-12-13T05:11:07;22.67;;;11.37;;
18657;SDS011;9458;50.942;5.074;2022-12-13T05:13:39;24.17;;;14.23;;
18657;SDS011;9458;50.942;5.074;2022-12-13T05:16:07;24.53;;;13.30;;
18657;SDS011;9458;50.942;5.074;2022-12-13T05:18:35;20.43;;;11.40;;
18657;SDS011;9458;50.942;5.074;2022-12-13T05:21:04;20.13;;;13.67;;
18657;SDS011;9458;50.942;5.074;2022-12-13T05:23:35;18.80;;;12.33;;
18657;SDS011;9458;50.942;5.074;2022-12-13T05:26:03;21.07;;;13.30;;
18657;SDS011;9458;50.942;5.074;2022-12-13T05:28:31;20.00;;;12.57;;
18657;SDS011;9458;50.942;5.074;2022-12-13T05:31:06;20.00;;;12.00;;
18657;SDS011;9458;50.942;5.074;2022-12-13T05:33:36;21.60;;;12.53;;
18657;SDS011;9458;50.942;5.074;2022-12-13T05:36:05;20.70;;;13.10;;
18657;SDS011;9458;50.942;5.074;2022-12-13T05:38:34;22.57;;;13.20;;
18657;SDS011;9458;50.942;5.074;2022-12-13T05:41:01;22.67;;;14.10;;
18657;SDS011;9458;50.942;5.074;2022-12-13T05:43:29;20.63;;;12.60;;
18657;SDS011;9458;50.942;5.074;2022-12-13T05:45:57;23.67;;;13.97;;
18657;SDS011;9458;50.942;5.074;2022-12-13T05:48:26;21.23;;;12.73;;
18657;SDS011;9458;50.942;5.074;2022-12-13T05:50:55;23.17;;;13.67;;
18657;SDS011;9458;50.942;5.074;2022-12-13T05:53:22;19.33;;;12.67;;
18657;SDS011;9458;50.942;5.074;2022-12-13T05:55:51;17.37;;;10.13;;
18657;SDS011;9458;50.942;5.074;2022-12-13T05:58:19;19.47;;;12.83;;
18657;SDS011;9458;50.942;5.074;2022-12-13T06:00:47;19.53;;;12.83;;
18657;SDS011;9458;50.942;5.074;2022-12-13T06:03:16;22.23;;;12.93;;
18657;SDS011;9458;50.942;5.074;2022-12-13T06:05:46;20.80;;;12.97;;
18657;SDS011;9458;50.942;5.074;2022-12-13T06:08:13;25.53;;;13.60;;
18657;SDS011;9458;50.942;5.074;2022-12-13T06:10:42;21.90;;;13.43;;
18657;SDS011;9458;50.942;5.074;2022-12-13T06:13:10;21.37;;;13.20;;
18657;SDS011;9458;50.942;5.074;2022-12-13T06:15:39;20.03;;;12.53;;
18657;SDS011;9458;50.942;5.074;2022-12-13T06:18:07;23.03;;;12.93;;
18657;SDS011;9458;50.942;5.074;2022-12-13T06:20:34;21.83;;;12.70;;
18657;SDS011;9458;50.942;5.074;2022-12-13T06:23:07;18.03;;;10.13;;
18657;SDS011;9458;50.942;5.074;2022-12-13T06:25:35;21.80;;;12.63;;
18657;SDS011;9458;50.942;5.074;2022-12-13T06:28:04;20.37;;;12.93;;
18657;SDS011;9458;50.942;5.074;2022-12-13T06:30:32;24.13;;;12.97;;
18657;SDS011;9458;50.942;5.074;2022-12-13T06:33:00;21.87;;;12.40;;
18657;SDS011;9458;50.942;5.074;2022-12-13T06:35:28;20.70;;;12.33;;
18657;SDS011;9458;50.942;5.074;2022-12-13T06:37:58;26.67;;;14.00;;
18657;SDS011;9458;50.942;5.074;2022-12-13T06:40:29;21.27;;;13.30;;
18657;SDS011;9458;50.942;5.074;2022-12-13T06:42:59;18.00;;;11.37;;
18657;SDS011;9458;50.942;5.074;2022-12-13T06:45:27;23.70;;;11.13;;
18657;SDS011;9458;50.942;5.074;2022-12-13T06:47:55;21.30;;;10.93;;
18657;SDS011;9458;50.942;5.074;2022-12-13T06:50:24;23.33;;;13.50;;
18657;SDS011;9458;50.942;5.074;2022-12-13T06:52:52;22.57;;;13.40;;
18657;SDS011;9458;50.942;5.074;2022-12-13T06:55:20;21.90;;;13.07;;
18657;SDS011;9458;50.942;5.074;2022-12-13T06:57:50;20.50;;;12.10;;
18657;SDS011;9458;50.942;5.074;2022-12-13T07:00:20;22.80;;;13.60;;
18657;SDS011;9458;50.942;5.074;2022-12-13T07:02:50;21.80;;;13.03;;
18657;SDS011;9458;50.942;5.074;2022-12-13T07:05:22;24.20;;;14.17;;
18657;SDS011;9458;50.942;5.074;2022-12-13T07:07:54;22.93;;;13.17;;
18657;SDS011;9458;50.942;5.074;2022-12-13T07:10:22;23.13;;;14.07;;
18657;SDS011;9458;50.942;5.074;2022-12-13T07:12:51;21.37;;;11.20;;
18657;SDS011;9458;50.942;5.074;2022-12-13T07:15:19;26.10;;;13.57;;
18657;SDS011;9458;50.942;5.074;2022-12-13T07:17:48;22.87;;;14.57;;
18657;SDS011;9458;50.942;5.074;2022-12-13T07:20:17;23.10;;;14.00;;
18657;SDS011;9458;50.942;5.074;2022-12-13T07:22:47;26.00;;;14.20;;
18657;SDS011;9458;50.942;5.074;2022-12-13T07:25:20;24.97;;;14.40;;
18657;SDS011;9458;50.942;5.074;2022-12-13T07:27:55;24.63;;;13.80;;
18657;SDS011;9458;50.942;5.074;2022-12-13T07:30:25;21.10;;;11.00;;
18657;SDS011;9458;50.942;5.074;2022-12-13T07:32:54;23.00;;;12.90;;
18657;SDS011;9458;50.942;5.074;2022-12-13T07:35:22;23.93;;;13.93;;
18657;SDS011;9458;50.942;5.074;2022-12-13T07:37:50;24.57;;;13.13;;
18657;SDS011;9458;50.942;5.074;2022-12-13T07:40:19;25.43;;;13.63;;
18657;SDS011;9458;50.942;5.074;2022-12-13T07:42:48;21.97;;;14.37;;
18657;SDS011;9458;50.942;5.074;2022-12-13T07:45:19;24.03;;;13.37;;
18657;SDS011;9458;50.942;5.074;2022-12-13T07:47:48;24.60;;;11.53;;
18657;SDS011;9458;50.942;5.074;2022-12-13T07:50:17;23.07;;;14.07;;
18657;SDS011;9458;50.942;5.074;2022-12-13T07:52:46;26.07;;;15.00;;
18657;SDS011;9458;50.942;5.074;2022-12-13T07:55:15;24.40;;;13.57;;
18657;SDS011;9458;50.942;5.074;2022-12-13T07:57:46;23.37;;;12.20;;
18657;SDS011;9458;50.942;5.074;2022-12-13T08:00:15;24.33;;;13.27;;
18657;SDS011;9458;50.942;5.074;2022-12-13T08:02:51;23.90;;;13.43;;
18657;SDS011;9458;50.942;5.074;2022-12-13T08:05:19;23.00;;;13.93;;
18657;SDS011;9458;50.942;5.074;2022-12-13T08:07:49;26.20;;;12.57;;
18657;SDS011;9458;50.942;5.074;2022-12-13T08:10:17;19.87;;;10.63;;
18657;SDS011;9458;50.942;5.074;2022-12-13T08:12:45;19.53;;;9.83;;
18657;SDS011;9458;50.942;5.074;2022-12-13T08:15:14;20.60;;;9.67;;
18657;SDS011;9458;50.942;5.074;2022-12-13T08:17:42;20.20;;;9.97;;
18657;SDS011;9458;50.942;5.074;2022-12-13T08:20:11;21.10;;;10.07;;
18657;SDS011;9458;50.942;5.074;2022-12-13T08:22:40;18.67;;;10.47;;
18657;SDS011;9458;50.942;5.074;2022-12-13T08:25:08;18.77;;;11.00;;
18657;SDS011;9458;50.942;5.074;2022-12-13T08:27:38;22.73;;;11.80;;
18657;SDS011;9458;50.942;5.074;2022-12-13T08:30:07;21.80;;;11.77;;
18657;SDS011;9458;50.942;5.074;2022-12-13T08:32:38;21.70;;;10.37;;
18657;SDS011;9458;50.942;5.074;2022-12-13T08:35:06;22.83;;;12.80;;
18657;SDS011;9458;50.942;5.074;2022-12-13T08:37:37;19.63;;;11.50;;
18657;SDS011;9458;50.942;5.074;2022-12-13T08:40:04;20.80;;;11.93;;
18657;SDS011;9458;50.942;5.074;2022-12-13T08:42:34;18.17;;;11.40;;
18657;SDS011;9458;50.942;5.074;2022-12-13T08:45:01;18.33;;;11.27;;
18657;SDS011;9458;50.942;5.074;2022-12-13T08:47:29;20.30;;;11.40;;
18657;SDS011;9458;50.942;5.074;2022-12-13T08:49:58;19.80;;;12.17;;
18657;SDS011;9458;50.942;5.074;2022-12-13T08:52:27;19.97;;;12.13;;
18657;SDS011;9458;50.942;5.074;2022-12-13T08:54:58;19.27;;;11.43;;
18657;SDS011;9458;50.942;5.074;2022-12-13T08:57:27;22.23;;;11.83;;
18657;SDS011;9458;50.942;5.074;2022-12-13T08:59:56;23.13;;;12.70;;
18657;SDS011;9458;50.942;5.074;2022-12-13T09:02:25;20.33;;;11.37;;
18657;SDS011;9458;50.942;5.074;2022-12-13T09:04:53;25.23;;;12.77;;
18657;SDS011;9458;50.942;5.074;2022-12-13T09:07:21;21.33;;;12.03;;
18657;SDS011;9458;50.942;5.074;2022-12-13T09:09:49;21.00;;;12.53;;
18657;SDS011;9458;50.942;5.074;2022-12-13T09:12:19;22.70;;;13.37;;
18657;SDS011;9458;50.942;5.074;2022-12-13T09:14:47;26.80;;;12.53;;
18657;SDS011;9458;50.942;5.074;2022-12-13T09:17:14;20.07;;;12.30;;
18657;SDS011;9458;50.942;5.074;2022-12-13T09:19:42;22.63;;;12.97;;
18657;SDS011;9458;50.942;5.074;2022-12-13T09:22:10;24.60;;;13.37;;
18657;SDS011;9458;50.942;5.074;2022-12-13T09:24:38;22.33;;;11.93;;
18657;SDS011;9458;50.942;5.074;2022-12-13T09:27:06;23.53;;;12.57;;
18657;SDS011;9458;50.942;5.074;2022-12-13T09:29:36;23.17;;;12.77;;
18657;SDS011;9458;50.942;5.074;2022-12-13T09:32:04;19.93;;;11.20;;
18657;SDS011;9458;50.942;5.074;2022-12-13T09:34:33;24.30;;;12.73;;
18657;SDS011;9458;50.942;5.074;2022-12-13T09:37:01;23.47;;;13.03;;
18657;SDS011;9458;50.942;5.074;2022-12-13T09:39:29;23.57;;;12.53;;
18657;SDS011;9458;50.942;5.074;2022-12-13T09:41:57;24.77;;;12.80;;
18657;SDS011;9458;50.942;5.074;2022-12-13T09:44:27;22.60;;;12.50;;
18657;SDS011;9458;50.942;5.074;2022-12-13T09:47:00;24.20;;;12.90;;
18657;SDS011;9458;50.942;5.074;2022-12-13T09:49:32;24.13;;;12.17;;
18657;SDS011;9458;50.942;5.074;2022-12-13T09:52:05;25.20;;;12.63;;
18657;SDS011;9458;50.942;5.074;2022-12-13T09:54:39;26.20;;;13.23;;
18657;SDS011;9458;50.942;5.074;2022-12-13T09:57:08;24.93;;;12.63;;
18657;SDS011;9458;50.942;5.074;2022-12-13T09:59:43;24.33;;;12.73;;
18657;SDS011;9458;50.942;5.074;2022-12-13T10:02:15;23.67;;;12.43;;
18657;SDS011;9458;50.942;5.074;2022-12-13T10:04:46;23.43;;;13.03;;
18657;SDS011;9458;50.942;5.074;2022-12-13T10:07:16;27.40;;;12.57;;
18657;SDS011;9458;50.942;5.074;2022-12-13T10:09:46;24.87;;;12.80;;
18657;SDS011;9458;50.942;5.074;2022-12-13T10:12:16;26.53;;;14.00;;
18657;SDS011;9458;50.942;5.074;2022-12-13T10:14:45;26.53;;;13.03;;
18657;SDS011;9458;50.942;5.074;2022-12-13T10:17:18;28.43;;;12.97;;
18657;SDS011;9458;50.942;5.074;2022-12-13T10:19:49;25.27;;;13.40;;
18657;SDS011;9458;50.942;5.074;2022-12-13T10:22:18;25.77;;;12.93;;
18657;SDS011;9458;50.942;5.074;2022-12-13T10:24:49;29.40;;;13.00;;
18657;SDS011;9458;50.942;5.074;2022-12-13T10:27:20;26.77;;;12.93;;
18657;SDS011;9458;50.942;5.074;2022-12-13T10:29:55;28.73;;;12.53;;
18657;SDS011;9458;50.942;5.074;2022-12-13T10:32:30;33.23;;;14.97;;
18657;SDS011;9458;50.942;5.074;2022-12-13T10:35:01;29.33;;;14.97;;
18657;SDS011;9458;50.942;5.074;2022-12-13T10:37:46;26.90;;;13.70;;
18657;SDS011;9458;50.942;5.074;2022-12-13T10:40:27;30.97;;;13.97;;
18657;SDS011;9458;50.942;5.074;2022-12-13T10:43:05;29.37;;;14.20;;
18657;SDS011;9458;50.942;5.074;2022-12-13T10:45:34;35.97;;;14.90;;
18657;SDS011;9458;50.942;5.074;2022-12-13T10:48:04;28.37;;;15.07;;
18657;SDS011;9458;50.942;5.074;2022-12-13T10:50:32;25.67;;;13.70;;
18657;SDS011;9458;50.942;5.074;2022-12-13T10:53:02;28.33;;;14.50;;
18657;SDS011;9458;50.942;5.074;2022-12-13T10:55:32;30.13;;;15.40;;
18657;SDS011;9458;50.942;5.074;2022-12-13T10:58:06;28.67;;;14.73;;
18657;SDS011;9458;50.942;5.074;2022-12-13T11:00:46;27.30;;;13.37;;
18657;SDS011;9458;50.942;5.074;2022-12-13T11:03:29;32.27;;;14.13;;
18657;SDS011;9458;50.942;5.074;2022-12-13T11:06:05;30.70;;;14.30;;
18657;SDS011;9458;50.942;5.074;2022-12-13T11:08:48;24.70;;;12.97;;
18657;SDS011;9458;50.942;5.074;2022-12-13T11:11:25;26.43;;;12.63;;
18657;SDS011;9458;50.942;5.074;2022-12-13T11:16:31;29.20;;;15.00;;
18657;SDS011;9458;50.942;5.074;2022-12-13T11:19:03;29.03;;;13.63;;
18657;SDS011;9458;50.942;5.074;2022-12-13T11:21:37;30.33;;;14.57;;
18657;SDS011;9458;50.942;5.074;2022-12-13T11:24:07;29.97;;;14.27;;
18657;SDS011;9458;50.942;5.074;2022-12-13T11:26:44;30.47;;;15.17;;
18657;SDS011;9458;50.942;5.074;2022-12-13T11:29:24;30.10;;;15.00;;
18657;SDS011;9458;50.942;5.074;2022-12-13T11:32:12;29.27;;;14.13;;
18657;SDS011;9458;50.942;5.074;2022-12-13T11:34:50;26.13;;;14.03;;
18657;SDS011;9458;50.942;5.074;2022-12-13T11:37:24;31.17;;;15.53;;
18657;SDS011;9458;50.942;5.074;2022-12-13T11:39:56;30.30;;;14.47;;
18657;SDS011;9458;50.942;5.074;2022-12-13T11:42:30;28.87;;;13.50;;
18657;SDS011;9458;50.942;5.074;2022-12-13T11:45:06;30.37;;;13.73;;
18657;SDS011;9458;50.942;5.074;2022-12-13T11:47:42;29.83;;;14.80;;
18657;SDS011;9458;50.942;5.074;2022-12-13T11:50:15;31.60;;;14.77;;
18657;SDS011;9458;50.942;5.074;2022-12-13T11:52:47;32.57;;;14.03;;
18657;SDS011;9458;50.942;5.074;2022-12-13T11:55:18;29.17;;;13.87;;
18657;SDS011;9458;50.942;5.074;2022-12-13T11:57:52;32.13;;;14.57;;
18657;SDS011;9458;50.942;5.074;2022-12-13T12:00:29;32.30;;;14.67;;
18657;SDS011;9458;50.942;5.074;2022-12-13T12:03:05;29.80;;;14.73;;
18657;SDS011;9458;50.942;5.074;2022-12-13T12:05:44;33.20;;;14.77;;
18657;SDS011;9458;50.942;5.074;2022-12-13T12:08:18;30.00;;;14.43;;
18657;SDS011;9458;50.942;5.074;2022-12-13T12:10:55;27.37;;;13.67;;
18657;SDS011;9458;50.942;5.074;2022-12-13T12:13:30;30.47;;;14.43;;
18657;SDS011;9458;50.942;5.074;2022-12-13T12:16:05;26.97;;;13.23;;
18657;SDS011;9458;50.942;5.074;2022-12-13T12:18:39;29.47;;;14.27;;
18657;SDS011;9458;50.942;5.074;2022-12-13T12:21:15;29.80;;;14.83;;
18657;SDS011;9458;50.942;5.074;2022-12-13T12:23:55;27.00;;;13.73;;
18657;SDS011;9458;50.942;5.074;2022-12-13T12:26:40;30.20;;;13.77;;
18657;SDS011;9458;50.942;5.074;2022-12-13T12:29:50;26.03;;;12.00;;
18657;SDS011;9458;50.942;5.074;2022-12-13T12:32:31;31.57;;;13.70;;
18657;SDS011;9458;50.942;5.074;2022-12-13T12:38:19;25.30;;;12.93;;
18657;SDS011;9458;50.942;5.074;2022-12-13T12:41:21;26.83;;;13.07;;
18657;SDS011;9458;50.942;5.074;2022-12-13T12:44:00;31.70;;;13.43;;
18657;SDS011;9458;50.942;5.074;2022-12-13T12:46:40;28.03;;;13.40;;
18657;SDS011;9458;50.942;5.074;2022-12-13T12:52:26;24.10;;;11.53;;
18657;SDS011;9458;50.942;5.074;2022-12-13T12:58:50;24.03;;;12.33;;
18657;SDS011;9458;50.942;5.074;2022-12-13T13:01:29;22.67;;;11.87;;
18657;SDS011;9458;50.942;5.074;2022-12-13T13:04:11;22.87;;;12.37;;
18657;SDS011;9458;50.942;5.074;2022-12-13T13:06:43;23.37;;;12.07;;
18657;SDS011;9458;50.942;5.074;2022-12-13T13:09:16;26.47;;;11.97;;
18657;SDS011;9458;50.942;5.074;2022-12-13T13:11:45;28.77;;;13.30;;
18657;SDS011;9458;50.942;5.074;2022-12-13T13:14:30;25.50;;;11.83;;
18657;SDS011;9458;50.942;5.074;2022-12-13T13:20:43;25.83;;;11.67;;
18657;SDS011;9458;50.942;5.074;2022-12-13T13:23:21;22.57;;;11.53;;
18657;SDS011;9458;50.942;5.074;2022-12-13T13:26:01;20.63;;;10.77;;
18657;SDS011;9458;50.942;5.074;2022-12-13T13:28:34;25.73;;;11.60;;
18657;SDS011;9458;50.942;5.074;2022-12-13T13:37:47;30.53;;;12.90;;
18657;SDS011;9458;50.942;5.074;2022-12-13T13:40:29;29.17;;;13.23;;
18657;SDS011;9458;50.942;5.074;2022-12-13T13:48:54;24.23;;;11.97;;
18657;SDS011;9458;50.942;5.074;2022-12-13T13:57:52;22.93;;;11.70;;
18657;SDS011;9458;50.942;5.074;2022-12-13T14:01:05;28.17;;;12.53;;
18657;SDS011;9458;50.942;5.074;2022-12-13T14:06:59;24.27;;;13.00;;
18657;SDS011;9458;50.942;5.074;2022-12-13T14:10:21;27.17;;;12.70;;
18657;SDS011;9458;50.942;5.074;2022-12-13T14:20:46;25.57;;;12.63;;
18657;SDS011;9458;50.942;5.074;2022-12-13T14:23:32;23.33;;;12.53;;
18657;SDS011;9458;50.942;5.074;2022-12-13T14:26:18;25.47;;;12.63;;
18657;SDS011;9458;50.942;5.074;2022-12-13T14:28:57;28.30;;;12.23;;
18657;SDS011;9458;50.942;5.074;2022-12-13T14:31:29;23.63;;;11.37;;
18657;SDS011;9458;50.942;5.074;2022-12-13T14:34:05;27.43;;;13.47;;
18657;SDS011;9458;50.942;5.074;2022-12-13T14:36:46;25.57;;;12.63;;
18657;SDS011;9458;50.942;5.074;2022-12-13T14:39:21;28.37;;;12.93;;
18657;SDS011;9458;50.942;5.074;2022-12-13T14:41:51;26.17;;;12.67;;
18657;SDS011;9458;50.942;5.074;2022-12-13T14:44:21;29.50;;;13.63;;
18657;SDS011;9458;50.942;5.074;2022-12-13T14:46:51;31.07;;;13.20;;
18657;SDS011;9458;50.942;5.074;2022-12-13T14:49:21;26.40;;;12.50;;
18657;SDS011;9458;50.942;5.074;2022-12-13T14:51:54;25.90;;;12.60;;
18657;SDS011;9458;50.942;5.074;2022-12-13T14:54:28;27.33;;;13.13;;
18657;SDS011;9458;50.942;5.074;2022-12-13T14:57:12;28.83;;;12.83;;
18657;SDS011;9458;50.942;5.074;2022-12-13T14:59:46;23.93;;;12.23;;
18657;SDS011;9458;50.942;5.074;2022-12-13T15:02:15;25.10;;;12.10;;
18657;SDS011;9458;50.942;5.074;2022-12-13T15:04:55;25.10;;;12.77;;
18657;SDS011;9458;50.942;5.074;2022-12-13T15:07:25;27.27;;;13.00;;
18657;SDS011;9458;50.942;5.074;2022-12-13T15:09:55;27.17;;;13.37;;
18657;SDS011;9458;50.942;5.074;2022-12-13T15:12:25;27.27;;;12.47;;
18657;SDS011;9458;50.942;5.074;2022-12-13T15:14:57;29.60;;;12.77;;
18657;SDS011;9458;50.942;5.074;2022-12-13T15:17:28;26.80;;;12.60;;
18657;SDS011;9458;50.942;5.074;2022-12-13T15:19:58;22.90;;;12.53;;
18657;SDS011;9458;50.942;5.074;2022-12-13T15:22:30;26.40;;;12.17;;
18657;SDS011;9458;50.942;5.074;2022-12-13T15:24:59;28.97;;;13.03;;
18657;SDS011;9458;50.942;5.074;2022-12-13T15:27:28;21.07;;;11.30;;
18657;SDS011;9458;50.942;5.074;2022-12-13T15:29:56;24.20;;;12.50;;
18657;SDS011;9458;50.942;5.074;2022-12-13T15:32:25;27.27;;;13.00;;
18657;SDS011;9458;50.942;5.074;2022-12-13T15:34:53;28.57;;;12.37;;
18657;SDS011;9458;50.942;5.074;2022-12-13T15:37:25;23.57;;;11.47;;
18657;SDS011;9458;50.942;5.074;2022-12-13T15:40:04;25.30;;;11.93;;
18657;SDS011;9458;50.942;5.074;2022-12-13T15:42:34;23.53;;;11.83;;
18657;SDS011;9458;50.942;5.074;2022-12-13T15:45:06;27.00;;;12.10;;
18657;SDS011;9458;50.942;5.074;2022-12-13T15:47:46;27.37;;;12.23;;
18657;SDS011;9458;50.942;5.074;2022-12-13T15:50:28;26.03;;;11.77;;
18657;SDS011;9458;50.942;5.074;2022-12-13T15:52:59;23.07;;;10.63;;
18657;SDS011;9458;50.942;5.074;2022-12-13T15:55:34;24.33;;;10.73;;
18657;SDS011;9458;50.942;5.074;2022-12-13T15:58:16;25.07;;;12.80;;
18657;SDS011;9458;50.942;5.074;2022-12-13T16:00:56;24.53;;;11.77;;